Overview Statistics Trail Chart Weather Telemetry Raw packets
 

This is the latest recevied weather packets stored in our database for station/object KD2FKI. If no packets are shown the sender has not sent any weather packets the latest 10 day(s).

<< 36 37 38 39 40 41 42 >>
Time Temp. Humidity Pressure Rain* Wind** Luminosity Snow
1777642233 12.22° C 63% - 0 mm - - -
1777641638 12.78° C 63% - 0 mm - - -
1777641046 12.22° C 65% - 0 mm - - -
1777640453 11.67° C 68% - 0 mm - - -
1777639845 11.11° C 70% - 0 mm - - -
1777639233 11.11° C 71% - 0 mm - - -
1777638642 10° C 74% - 0 mm - - -
1777638031 8.89° C 77% - 0 mm - - -
1777637439 8.89° C 79% - 0 mm - - -
1777636847 8.33° C 81% - 0 mm - - -
1777636237 7.78° C 83% - 0 mm - - -
1777635662 7.22° C 86% - 0 mm - - -
1777635035 6.11° C 92% - 0 mm - - -
1777634441 5.56° C 93% - 0 mm - - -
1777633832 5° C 93% - 0 mm - - -
1777633239 5° C 93% - 0 mm - - -
1777632647 5° C 93% - 0 mm - - -
1777632060 5° C 92% - 0 mm - - -
1777631463 5° C 90% - 0 mm - - -
1777630841 5.56° C 88% - 0 mm - - -
1777630242 5.56° C 87% - 0 mm - - -
1777629632 6.11° C 86% - 0 mm - - -
1777629040 6.11° C 86% - 0 mm - - -
1777628429 6.11° C 85% - 0 mm - - -
1777627836 6.11° C 85% - 0 mm - - -

* Rain latest hour (hover to see other rain measurements)
** Current wind speed in m/s (hover to see current wind gust speed)